JES3791 SGAS-SABE
Flight info
| Callsign | JES3791 |
|---|---|
| Flight time | N/A |
| Altitude | 34000 |
| Route | ITAPE ASATI UP526 REPAM UZ103 DALAB UL793 GUA UZ129 PAGON PAGON9R |
| Aircraft | A320/M-SDE3FGHIRWY/LB1 |
Departure
| Time | 2026-04-23 17:21 |
|---|---|
| Airport | Silvio Pettirossi International Airport (SGAS) |
Arrival
| Time | N/A |
|---|---|
| Airport | Aeroparque Jorge Newbery (SABE) |
| Time | Latitude | Longitude | Altitude | Speed | Heading |
|---|---|---|---|---|---|
| 2026-04-23 16:29 | -25.24127 | -57.51492 | 279 ft | 0 kts | 108° |
| 2026-04-23 17:09 | -25.24120 | -57.51518 | 278 ft | 4 kts | 106° |
| 2026-04-23 17:09 | -25.24113 | -57.51547 | 278 ft | 4 kts | 104° |
| 2026-04-23 17:10 | -25.24106 | -57.51575 | 278 ft | 4 kts | 107° |
| 2026-04-23 17:10 | -25.24096 | -57.51602 | 278 ft | 4 kts | 134° |
| 2026-04-23 17:10 | -25.24084 | -57.51610 | 278 ft | 0 kts | 192° |
| 2026-04-23 17:14 | -25.24100 | -57.51614 | 278 ft | 5 kts | 193° |
| 2026-04-23 17:14 | -25.24149 | -57.51627 | 278 ft | 9 kts | 192° |
| 2026-04-23 17:14 | -25.24229 | -57.51640 | 281 ft | 14 kts | 180° |
| 2026-04-23 17:15 | -25.24336 | -57.51669 | 279 ft | 18 kts | 216° |
| 2026-04-23 17:15 | -25.24417 | -57.51794 | 280 ft | 21 kts | 226° |
| 2026-04-23 17:15 | -25.24537 | -57.51831 | 279 ft | 17 kts | 201° |
| 2026-04-23 17:15 | -25.24659 | -57.51865 | 279 ft | 20 kts | 190° |
| 2026-04-23 17:16 | -25.24811 | -57.51897 | 279 ft | 25 kts | 196° |
| 2026-04-23 17:16 | -25.24995 | -57.51938 | 279 ft | 30 kts | 192° |
| 2026-04-23 17:16 | -25.25209 | -57.51989 | 279 ft | 33 kts | 190° |
| 2026-04-23 17:16 | -25.25422 | -57.52048 | 280 ft | 28 kts | 198° |
| 2026-04-23 17:17 | -25.25484 | -57.52124 | 282 ft | 8 kts | 280° |
| 2026-04-23 17:17 | -25.25471 | -57.52175 | 284 ft | 4 kts | 282° |
| 2026-04-23 17:17 | -25.25471 | -57.52176 | 284 ft | 0 kts | 283° |
| 2026-04-23 17:18 | -25.25469 | -57.52186 | 290 ft | 3 kts | 283° |
| 2026-04-23 17:18 | -25.25463 | -57.52213 | 287 ft | 5 kts | 283° |
| 2026-04-23 17:19 | -25.25436 | -57.52253 | 287 ft | 10 kts | 333° |
| 2026-04-23 17:19 | -25.25359 | -57.52244 | 287 ft | 6 kts | 12° |
| 2026-04-23 17:19 | -25.25358 | -57.52244 | 287 ft | 0 kts | 12° |
| 2026-04-23 17:20 | -25.25239 | -57.52215 | 285 ft | 47 kts | 13° |
| 2026-04-23 17:21 | -25.23816 | -57.51866 | 277 ft | 151 kts | 13° |
| 2026-04-23 17:21 | -25.22706 | -57.51583 | 536 ft | 169 kts | 13° |
| 2026-04-23 17:21 | -25.20371 | -57.50951 | 1365 ft | 176 kts | 13° |
| 2026-04-23 17:22 | -25.19184 | -57.50675 | 1925 ft | 173 kts | 12° |
| 2026-04-23 17:22 | -25.16707 | -57.50098 | 2284 ft | 197 kts | 12° |
| 2026-04-23 17:23 | -25.13740 | -57.49376 | 2699 ft | 244 kts | 19° |
| 2026-04-23 17:23 | -25.12244 | -57.48416 | 3395 ft | 256 kts | 40° |
| 2026-04-23 17:23 | -25.10658 | -57.44911 | 5019 ft | 274 kts | 83° |
| 2026-04-23 17:24 | -25.10903 | -57.42799 | 5823 ft | 285 kts | 107° |
| 2026-04-23 17:24 | -25.11940 | -57.40916 | 6644 ft | 294 kts | 133° |
| 2026-04-23 17:24 | -25.15703 | -57.39338 | 8182 ft | 302 kts | 187° |
| 2026-04-23 17:25 | -25.19835 | -57.40340 | 9759 ft | 307 kts | 195° |
| 2026-04-23 17:25 | -25.21944 | -57.40855 | 10381 ft | 319 kts | 188° |
| 2026-04-23 17:26 | -25.26693 | -57.40747 | 11183 ft | 357 kts | 179° |
| 2026-04-23 17:26 | -25.31675 | -57.40548 | 12623 ft | 365 kts | 183° |
| 2026-04-23 17:27 | -25.36711 | -57.41405 | 13965 ft | 368 kts | 195° |
| 2026-04-23 17:27 | -25.39199 | -57.42108 | 14519 ft | 370 kts | 197° |
| 2026-04-23 17:27 | -25.41694 | -57.42865 | 15073 ft | 373 kts | 198° |
| 2026-04-23 17:27 | -25.44206 | -57.43617 | 15629 ft | 376 kts | 197° |
| 2026-04-23 17:28 | -25.46764 | -57.44246 | 16166 ft | 380 kts | 189° |
| 2026-04-23 17:28 | -25.49425 | -57.44324 | 16714 ft | 385 kts | 177° |
| 2026-04-23 17:28 | -25.52076 | -57.43789 | 17240 ft | 392 kts | 165° |
| 2026-04-23 17:28 | -25.54710 | -57.42985 | 17792 ft | 393 kts | 171° |
| 2026-04-23 17:29 | -25.57394 | -57.42739 | 18308 ft | 392 kts | 184° |
| 2026-04-23 17:29 | -25.60099 | -57.43096 | 18745 ft | 393 kts | 194° |
| 2026-04-23 17:29 | -25.65498 | -57.44305 | 19631 ft | 400 kts | 194° |
| 2026-04-23 17:30 | -25.67312 | -57.44694 | 19931 ft | 401 kts | 194° |
| 2026-04-23 17:30 | -25.73789 | -57.46044 | 20935 ft | 409 kts | 194° |
| 2026-04-23 17:30 | -25.76598 | -57.46627 | 21356 ft | 412 kts | 194° |
| 2026-04-23 17:31 | -25.79428 | -57.47221 | 21767 ft | 415 kts | 194° |
| 2026-04-23 17:31 | -25.82271 | -57.47820 | 22215 ft | 417 kts | 194° |
| 2026-04-23 17:31 | -25.85092 | -57.48418 | 22648 ft | 419 kts | 194° |
| 2026-04-23 17:31 | -25.87963 | -57.49028 | 23049 ft | 422 kts | 194° |
| 2026-04-23 17:32 | -25.90857 | -57.49646 | 23447 ft | 425 kts | 194° |
| 2026-04-23 17:32 | -25.93769 | -57.50272 | 23790 ft | 427 kts | 194° |
| 2026-04-23 17:32 | -25.96694 | -57.50903 | 24118 ft | 430 kts | 194° |
| 2026-04-23 17:32 | -25.99639 | -57.51535 | 24445 ft | 432 kts | 194° |
| 2026-04-23 17:33 | -26.02596 | -57.52163 | 24790 ft | 433 kts | 194° |
| 2026-04-23 17:33 | -26.05568 | -57.52786 | 25109 ft | 436 kts | 194° |
| 2026-04-23 17:33 | -26.08578 | -57.53289 | 25445 ft | 441 kts | 188° |
| 2026-04-23 17:33 | -26.11659 | -57.53372 | 25801 ft | 445 kts | 185° |
| 2026-04-23 17:34 | -26.14720 | -57.53401 | 26132 ft | 446 kts | 185° |
| 2026-04-23 17:34 | -26.17833 | -57.53434 | 26450 ft | 448 kts | 185° |
| 2026-04-23 17:34 | -26.24098 | -57.53503 | 27047 ft | 452 kts | 185° |
| 2026-04-23 17:35 | -26.27251 | -57.53539 | 27348 ft | 455 kts | 185° |
| 2026-04-23 17:35 | -26.32531 | -57.53596 | 27854 ft | 458 kts | 185° |
| 2026-04-23 17:35 | -26.36805 | -57.53645 | 28275 ft | 460 kts | 186° |
| 2026-04-23 17:36 | -26.40022 | -57.53685 | 28602 ft | 463 kts | 186° |
| 2026-04-23 17:36 | -26.43252 | -57.53722 | 28931 ft | 465 kts | 186° |
| 2026-04-23 17:36 | -26.46453 | -57.53757 | 29231 ft | 468 kts | 186° |
| 2026-04-23 17:36 | -26.49715 | -57.53792 | 29533 ft | 470 kts | 186° |
| 2026-04-23 17:37 | -26.52989 | -57.53824 | 29830 ft | 472 kts | 186° |
| 2026-04-23 17:37 | -26.56289 | -57.53858 | 30124 ft | 475 kts | 186° |
| 2026-04-23 17:37 | -26.62908 | -57.53943 | 30787 ft | 475 kts | 187° |
| 2026-04-23 17:38 | -26.66210 | -57.53978 | 31193 ft | 474 kts | 187° |
| 2026-04-23 17:38 | -26.69503 | -57.54007 | 31612 ft | 471 kts | 187° |
| 2026-04-23 17:38 | -26.72785 | -57.54042 | 32050 ft | 469 kts | 188° |
| 2026-04-23 17:38 | -26.76051 | -57.54072 | 32464 ft | 468 kts | 187° |
| 2026-04-23 17:39 | -26.79258 | -57.54097 | 32895 ft | 468 kts | 187° |
| 2026-04-23 17:39 | -26.82512 | -57.54131 | 33425 ft | 466 kts | 188° |
| 2026-04-23 17:39 | -26.85741 | -57.54170 | 33905 ft | 464 kts | 187° |
| 2026-04-23 17:39 | -26.88973 | -57.54225 | 34013 ft | 465 kts | 188° |
| 2026-04-23 17:40 | -26.92205 | -57.54307 | 34032 ft | 464 kts | 188° |
| 2026-04-23 17:40 | -26.98643 | -57.54530 | 34036 ft | 463 kts | 189° |
| 2026-04-23 17:41 | -27.05022 | -57.54739 | 34041 ft | 461 kts | 188° |
| 2026-04-23 17:41 | -27.14671 | -57.55016 | 34019 ft | 463 kts | 188° |
| 2026-04-23 17:42 | -27.24314 | -57.55300 | 34029 ft | 458 kts | 188° |
| 2026-04-23 17:43 | -27.29564 | -57.55423 | 34012 ft | 454 kts | 187° |
| 2026-04-23 17:43 | -27.36974 | -57.55648 | 34044 ft | 461 kts | 188° |
| 2026-04-23 17:44 | -27.43370 | -57.56013 | 34019 ft | 456 kts | 195° |
| 2026-04-23 17:44 | -27.52554 | -57.58341 | 34055 ft | 453 kts | 200° |
| 2026-04-23 17:45 | -27.61706 | -57.60721 | 34027 ft | 457 kts | 200° |
| 2026-04-23 17:46 | -27.70974 | -57.63105 | 34074 ft | 455 kts | 199° |
| 2026-04-23 17:46 | -27.77161 | -57.64706 | 34059 ft | 455 kts | 199° |
| 2026-04-23 17:47 | -27.82252 | -57.65998 | 34045 ft | 450 kts | 200° |
| 2026-04-23 17:48 | -27.92379 | -57.68684 | 34040 ft | 449 kts | 201° |
| 2026-04-23 17:48 | -27.97439 | -57.70030 | 34041 ft | 450 kts | 200° |
| 2026-04-23 17:49 | -28.04599 | -57.71900 | 34030 ft | 454 kts | 200° |
| 2026-04-23 17:49 | -28.09713 | -57.73241 | 34037 ft | 454 kts | 200° |
| 2026-04-23 17:50 | -28.16896 | -57.75117 | 34024 ft | 456 kts | 200° |
| 2026-04-23 17:50 | -28.25126 | -57.77283 | 34028 ft | 457 kts | 201° |
| 2026-04-23 17:51 | -28.31297 | -57.78896 | 34032 ft | 454 kts | 201° |
| 2026-04-23 17:52 | -28.40580 | -57.81309 | 34036 ft | 458 kts | 201° |
| 2026-04-23 17:52 | -28.49932 | -57.83715 | 34090 ft | 460 kts | 201° |
| 2026-04-23 17:53 | -28.59271 | -57.86143 | 34104 ft | 460 kts | 201° |
| 2026-04-23 17:54 | -28.65516 | -57.87766 | 34105 ft | 459 kts | 201° |
| 2026-04-23 17:54 | -28.74874 | -57.90201 | 34088 ft | 457 kts | 203° |
| 2026-04-23 17:55 | -28.84077 | -57.92589 | 34089 ft | 453 kts | 203° |
| 2026-04-23 17:56 | -28.90209 | -57.94196 | 34089 ft | 451 kts | 202° |
| 2026-04-23 17:56 | -28.99396 | -57.96603 | 34118 ft | 451 kts | 200° |
| 2026-04-23 17:57 | -29.05493 | -57.98195 | 34088 ft | 453 kts | 200° |
| 2026-04-23 17:58 | -29.14743 | -58.00624 | 34093 ft | 456 kts | 200° |
| 2026-04-23 17:58 | -29.20931 | -58.02254 | 34101 ft | 457 kts | 200° |
| 2026-04-23 17:59 | -29.27130 | -58.03883 | 34104 ft | 458 kts | 201° |
| 2026-04-23 17:59 | -29.33375 | -58.05526 | 34082 ft | 462 kts | 201° |
| 2026-04-23 18:00 | -29.39620 | -58.07175 | 34085 ft | 465 kts | 200° |
| 2026-04-23 18:00 | -29.45973 | -58.08754 | 34094 ft | 469 kts | 198° |
| 2026-04-23 18:01 | -29.52422 | -58.10066 | 34119 ft | 472 kts | 197° |
| 2026-04-23 18:01 | -29.58898 | -58.11317 | 34120 ft | 472 kts | 198° |
| 2026-04-23 18:02 | -29.65356 | -58.12628 | 34121 ft | 471 kts | 198° |
| 2026-04-23 18:02 | -29.71769 | -58.13970 | 34124 ft | 471 kts | 198° |
| 2026-04-23 18:03 | -29.78216 | -58.15330 | 34128 ft | 471 kts | 198° |
| 2026-04-23 18:03 | -29.84672 | -58.16677 | 34132 ft | 472 kts | 198° |
| 2026-04-23 18:04 | -29.91157 | -58.17921 | 34129 ft | 473 kts | 197° |
| 2026-04-23 18:04 | -29.97605 | -58.19117 | 34136 ft | 473 kts | 197° |
| 2026-04-23 18:05 | -30.04093 | -58.20336 | 34167 ft | 474 kts | 198° |
| 2026-04-23 18:05 | -30.10693 | -58.21615 | 34131 ft | 486 kts | 198° |
| 2026-04-23 18:06 | -30.17384 | -58.22897 | 34136 ft | 488 kts | 198° |
| 2026-04-23 18:06 | -30.24088 | -58.24174 | 34135 ft | 488 kts | 198° |
| 2026-04-23 18:07 | -30.30744 | -58.25439 | 34124 ft | 489 kts | 199° |
| 2026-04-23 18:07 | -30.37463 | -58.26747 | 34160 ft | 487 kts | 200° |
| 2026-04-23 18:08 | -30.44140 | -58.28056 | 34157 ft | 487 kts | 199° |
| 2026-04-23 18:08 | -30.50819 | -58.29338 | 34152 ft | 486 kts | 199° |
| 2026-04-23 18:09 | -30.57504 | -58.30607 | 34173 ft | 486 kts | 199° |
| 2026-04-23 18:09 | -30.64095 | -58.31933 | 34165 ft | 483 kts | 200° |
| 2026-04-23 18:10 | -30.70686 | -58.33409 | 34161 ft | 481 kts | 201° |
| 2026-04-23 18:10 | -30.77236 | -58.34906 | 34161 ft | 481 kts | 201° |
| 2026-04-23 18:11 | -30.83828 | -58.36391 | 34177 ft | 483 kts | 201° |
| 2026-04-23 18:11 | -30.90390 | -58.37814 | 34172 ft | 483 kts | 201° |
| 2026-04-23 18:12 | -30.97032 | -58.39160 | 34159 ft | 485 kts | 200° |
| 2026-04-23 18:12 | -31.03687 | -58.40473 | 34176 ft | 485 kts | 200° |
| 2026-04-23 18:13 | -31.10318 | -58.41795 | 34141 ft | 479 kts | 201° |
| 2026-04-23 18:13 | -31.16857 | -58.43113 | 34126 ft | 476 kts | 200° |
| 2026-04-23 18:14 | -31.23329 | -58.44429 | 34125 ft | 476 kts | 201° |
| 2026-04-23 18:14 | -31.29862 | -58.45760 | 34129 ft | 479 kts | 200° |
| 2026-04-23 18:15 | -31.36417 | -58.47094 | 34128 ft | 478 kts | 200° |
| 2026-04-23 18:15 | -31.42954 | -58.48427 | 34123 ft | 475 kts | 201° |
| 2026-04-23 18:16 | -31.49418 | -58.49753 | 34112 ft | 474 kts | 201° |
| 2026-04-23 18:16 | -31.55950 | -58.51112 | 34153 ft | 479 kts | 200° |
| 2026-04-23 18:17 | -31.65772 | -58.53116 | 34145 ft | 478 kts | 200° |
| 2026-04-23 18:17 | -31.72327 | -58.54463 | 34132 ft | 480 kts | 200° |
| 2026-04-23 18:18 | -31.78855 | -58.55793 | 34138 ft | 481 kts | 200° |
| 2026-04-23 18:18 | -31.85461 | -58.57152 | 34158 ft | 480 kts | 200° |
| 2026-04-23 18:19 | -31.92037 | -58.58531 | 34149 ft | 481 kts | 201° |
| 2026-04-23 18:19 | -31.98604 | -58.59882 | 34174 ft | 479 kts | 200° |
| 2026-04-23 18:20 | -32.05119 | -58.61220 | 34182 ft | 480 kts | 200° |
| 2026-04-23 18:20 | -32.11668 | -58.62581 | 34152 ft | 475 kts | 201° |
| 2026-04-23 18:21 | -32.18176 | -58.63931 | 34144 ft | 475 kts | 201° |
| 2026-04-23 18:21 | -32.24692 | -58.65283 | 34133 ft | 475 kts | 201° |
| 2026-04-23 18:22 | -32.31208 | -58.66628 | 34143 ft | 478 kts | 198° |
| 2026-04-23 18:22 | -32.34521 | -58.66927 | 34137 ft | 490 kts | 189° |
| 2026-04-23 18:22 | -32.37962 | -58.66727 | 34141 ft | 497 kts | 185° |
| 2026-04-23 18:23 | -32.48305 | -58.65836 | 34149 ft | 497 kts | 185° |
| 2026-04-23 18:24 | -32.58651 | -58.64969 | 34164 ft | 496 kts | 185° |
| 2026-04-23 18:25 | -32.68978 | -58.64116 | 34160 ft | 495 kts | 185° |
| 2026-04-23 18:25 | -32.72380 | -58.63831 | 33671 ft | 498 kts | 185° |
| 2026-04-23 18:25 | -32.75827 | -58.63541 | 33141 ft | 495 kts | 185° |
| 2026-04-23 18:25 | -32.79259 | -58.63250 | 32525 ft | 494 kts | 185° |
| 2026-04-23 18:26 | -32.82681 | -58.62962 | 31970 ft | 492 kts | 185° |
| 2026-04-23 18:26 | -32.86087 | -58.62674 | 31403 ft | 490 kts | 185° |
| 2026-04-23 18:26 | -32.89482 | -58.62387 | 30836 ft | 488 kts | 185° |
| 2026-04-23 18:26 | -32.92854 | -58.62103 | 30267 ft | 486 kts | 185° |
| 2026-04-23 18:27 | -32.96208 | -58.61819 | 29683 ft | 481 kts | 185° |
| 2026-04-23 18:27 | -32.99488 | -58.61542 | 29155 ft | 476 kts | 185° |
| 2026-04-23 18:27 | -33.02730 | -58.61609 | 28676 ft | 458 kts | 195° |
| 2026-04-23 18:27 | -33.05884 | -58.61973 | 28200 ft | 453 kts | 195° |
| 2026-04-23 18:28 | -33.08997 | -58.62332 | 27752 ft | 446 kts | 195° |
| 2026-04-23 18:28 | -33.12066 | -58.62687 | 27302 ft | 441 kts | 194° |
| 2026-04-23 18:28 | -33.15087 | -58.63036 | 27093 ft | 430 kts | 195° |
| 2026-04-23 18:28 | -33.18023 | -58.63371 | 26834 ft | 421 kts | 195° |
| 2026-04-23 18:29 | -33.20932 | -58.63706 | 26390 ft | 419 kts | 194° |
| 2026-04-23 18:29 | -33.23823 | -58.64044 | 25947 ft | 417 kts | 194° |
| 2026-04-23 18:29 | -33.26701 | -58.64386 | 25500 ft | 414 kts | 194° |
| 2026-04-23 18:29 | -33.29520 | -58.64718 | 25065 ft | 412 kts | 193° |
| 2026-04-23 18:30 | -33.32400 | -58.65054 | 24610 ft | 409 kts | 193° |
| 2026-04-23 18:30 | -33.35188 | -58.65377 | 24165 ft | 407 kts | 193° |
| 2026-04-23 18:30 | -33.38005 | -58.65706 | 23684 ft | 406 kts | 193° |
| 2026-04-23 18:30 | -33.40807 | -58.66036 | 23168 ft | 404 kts | 192° |
| 2026-04-23 18:31 | -33.43592 | -58.66362 | 22694 ft | 400 kts | 192° |
| 2026-04-23 18:31 | -33.46351 | -58.66682 | 22288 ft | 395 kts | 192° |
| 2026-04-23 18:31 | -33.49073 | -58.66998 | 21775 ft | 393 kts | 192° |
| 2026-04-23 18:31 | -33.51773 | -58.67312 | 21324 ft | 388 kts | 192° |
| 2026-04-23 18:32 | -33.54446 | -58.67624 | 20909 ft | 383 kts | 192° |
| 2026-04-23 18:32 | -33.57097 | -58.67937 | 20425 ft | 381 kts | 192° |
| 2026-04-23 18:32 | -33.59688 | -58.68241 | 19923 ft | 378 kts | 192° |
| 2026-04-23 18:32 | -33.62280 | -58.68545 | 19479 ft | 374 kts | 192° |
| 2026-04-23 18:33 | -33.64858 | -58.68847 | 19082 ft | 369 kts | 191° |
| 2026-04-23 18:33 | -33.67405 | -58.69143 | 18591 ft | 367 kts | 191° |
| 2026-04-23 18:33 | -33.69924 | -58.69437 | 18209 ft | 361 kts | 191° |
| 2026-04-23 18:33 | -33.72411 | -58.69727 | 17701 ft | 357 kts | 191° |
| 2026-04-23 18:34 | -33.74879 | -58.70015 | 17141 ft | 356 kts | 191° |
| 2026-04-23 18:34 | -33.77328 | -58.70305 | 16656 ft | 353 kts | 190° |
| 2026-04-23 18:34 | -33.79730 | -58.70592 | 16232 ft | 349 kts | 190° |
| 2026-04-23 18:34 | -33.82133 | -58.70877 | 15787 ft | 346 kts | 189° |
| 2026-04-23 18:35 | -33.84517 | -58.71157 | 15338 ft | 342 kts | 189° |
| 2026-04-23 18:35 | -33.86873 | -58.71433 | 14909 ft | 339 kts | 189° |
| 2026-04-23 18:35 | -33.89212 | -58.71710 | 14476 ft | 336 kts | 188° |
| 2026-04-23 18:35 | -33.91530 | -58.71986 | 14062 ft | 333 kts | 188° |
| 2026-04-23 18:36 | -33.93828 | -58.72250 | 13601 ft | 331 kts | 188° |
| 2026-04-23 18:36 | -33.96114 | -58.72491 | 13165 ft | 328 kts | 187° |
| 2026-04-23 18:36 | -33.98381 | -58.72720 | 12741 ft | 325 kts | 187° |
| 2026-04-23 18:36 | -34.00628 | -58.72943 | 12323 ft | 323 kts | 187° |
| 2026-04-23 18:37 | -34.02868 | -58.73171 | 11906 ft | 322 kts | 187° |
| 2026-04-23 18:37 | -34.05062 | -58.73401 | 11497 ft | 320 kts | 187° |
| 2026-04-23 18:37 | -34.07276 | -58.73628 | 11080 ft | 319 kts | 187° |
| 2026-04-23 18:37 | -34.09483 | -58.73853 | 10668 ft | 318 kts | 187° |
| 2026-04-23 18:38 | -34.11686 | -58.74079 | 10281 ft | 317 kts | 187° |
| 2026-04-23 18:38 | -34.13845 | -58.74297 | 10155 ft | 306 kts | 187° |
| 2026-04-23 18:38 | -34.15926 | -58.74508 | 10047 ft | 296 kts | 187° |
| 2026-04-23 18:38 | -34.17960 | -58.74716 | 9653 ft | 290 kts | 187° |
| 2026-04-23 18:39 | -34.19968 | -58.74924 | 9001 ft | 289 kts | 187° |
| 2026-04-23 18:39 | -34.21964 | -58.75133 | 8398 ft | 287 kts | 187° |
| 2026-04-23 18:39 | -34.23945 | -58.75339 | 7817 ft | 284 kts | 187° |
| 2026-04-23 18:39 | -34.25896 | -58.75542 | 7462 ft | 283 kts | 187° |
| 2026-04-23 18:40 | -34.27850 | -58.75749 | 7149 ft | 282 kts | 187° |
| 2026-04-23 18:40 | -34.29807 | -58.75944 | 6806 ft | 282 kts | 184° |
| 2026-04-23 18:40 | -34.31753 | -58.75678 | 6487 ft | 283 kts | 165° |
| 2026-04-23 18:40 | -34.33523 | -58.74693 | 5926 ft | 280 kts | 147° |
| 2026-04-23 18:41 | -34.34968 | -58.73116 | 5351 ft | 279 kts | 135° |
| 2026-04-23 18:41 | -34.36308 | -58.71432 | 4776 ft | 277 kts | 135° |
| 2026-04-23 18:41 | -34.37639 | -58.69771 | 4255 ft | 273 kts | 135° |
| 2026-04-23 18:41 | -34.38948 | -58.68141 | 3888 ft | 267 kts | 135° |
| 2026-04-23 18:42 | -34.40231 | -58.66539 | 3722 ft | 263 kts | 135° |
| 2026-04-23 18:42 | -34.41472 | -58.64998 | 3556 ft | 255 kts | 135° |
| 2026-04-23 18:42 | -34.42701 | -58.63473 | 3319 ft | 250 kts | 135° |
| 2026-04-23 18:42 | -34.43900 | -58.61985 | 3191 ft | 243 kts | 135° |
| 2026-04-23 18:43 | -34.44293 | -58.61496 | 3154 ft | 238 kts | 134° |